Saint Elmo, Alabama
Current Conditions -  °F | °C
As of 3:56 AM on Friday 28 Nov 2014 (Local Time) from KMOB Reporting Station
Clear Clear  
Wind Chill: 28°   Ceiling: Unl
Heat Index: 35°   Visibility: 10mi
Dew Point: 30°   Wind: 9mph
Humidity: 82%   Direction: 30°NNE
Pressure: 30.41"   Gusts: NA
Location:  30.5°N, 88.25°W
Report Text: KMOB 280956Z AUTO 03008KT 10SM CLR 02/M01 A3041 RMK AO2 SLP298 T00171011
Loading
Personal Weather Stations






























Interactive Weather Map New forecast layout! Learn more

10-Day Weather Forecast

Advertisements
Track Severe Weather on mobile